sensor_id;sensor_type;location;lat;lon;timestamp;P1;durP1;ratioP1;P2;durP2;ratioP2
79076;SDS011;68477;42.698;23.342;2023-07-28T00:02:16;7.82;;;4.68;;
79076;SDS011;68477;42.698;23.342;2023-07-28T00:04:41;7.15;;;4.93;;
79076;SDS011;68477;42.698;23.342;2023-07-28T00:07:07;10.27;;;4.75;;
79076;SDS011;68477;42.698;23.342;2023-07-28T00:09:32;8.68;;;5.07;;
79076;SDS011;68477;42.698;23.342;2023-07-28T00:11:58;5.30;;;3.80;;
79076;SDS011;68477;42.698;23.342;2023-07-28T00:14:25;6.18;;;4.82;;
79076;SDS011;68477;42.698;23.342;2023-07-28T00:16:51;6.13;;;5.53;;
79076;SDS011;68477;42.698;23.342;2023-07-28T00:19:17;6.38;;;4.95;;
79076;SDS011;68477;42.698;23.342;2023-07-28T00:21:44;8.52;;;4.72;;
79076;SDS011;68477;42.698;23.342;2023-07-28T00:24:09;7.00;;;4.88;;
79076;SDS011;68477;42.698;23.342;2023-07-28T00:26:34;4.90;;;4.25;;
79076;SDS011;68477;42.698;23.342;2023-07-28T00:29:00;7.25;;;4.35;;
79076;SDS011;68477;42.698;23.342;2023-07-28T00:31:25;6.38;;;4.38;;
79076;SDS011;68477;42.698;23.342;2023-07-28T00:33:51;6.13;;;4.43;;
79076;SDS011;68477;42.698;23.342;2023-07-28T00:36:16;6.55;;;5.47;;
79076;SDS011;68477;42.698;23.342;2023-07-28T00:38:42;6.15;;;5.50;;
79076;SDS011;68477;42.698;23.342;2023-07-28T00:41:07;7.05;;;5.47;;
79076;SDS011;68477;42.698;23.342;2023-07-28T00:43:33;5.95;;;5.28;;
79076;SDS011;68477;42.698;23.342;2023-07-28T00:45:58;8.48;;;5.25;;
79076;SDS011;68477;42.698;23.342;2023-07-28T00:48:24;6.38;;;5.30;;
79076;SDS011;68477;42.698;23.342;2023-07-28T00:50:50;6.22;;;5.00;;
79076;SDS011;68477;42.698;23.342;2023-07-28T00:53:17;6.22;;;4.75;;
79076;SDS011;68477;42.698;23.342;2023-07-28T00:55:45;6.97;;;5.55;;
79076;SDS011;68477;42.698;23.342;2023-07-28T00:58:10;7.55;;;5.75;;
79076;SDS011;68477;42.698;23.342;2023-07-28T01:00:36;6.72;;;5.40;;
79076;SDS011;68477;42.698;23.342;2023-07-28T01:03:02;7.00;;;5.85;;
79076;SDS011;68477;42.698;23.342;2023-07-28T01:05:31;7.15;;;6.35;;
79076;SDS011;68477;42.698;23.342;2023-07-28T01:10:36;8.65;;;6.15;;
79076;SDS011;68477;42.698;23.342;2023-07-28T01:13:04;6.90;;;5.68;;
79076;SDS011;68477;42.698;23.342;2023-07-28T01:15:29;9.07;;;6.03;;
79076;SDS011;68477;42.698;23.342;2023-07-28T01:17:56;8.57;;;6.47;;
79076;SDS011;68477;42.698;23.342;2023-07-28T01:20:22;8.93;;;5.93;;
79076;SDS011;68477;42.698;23.342;2023-07-28T01:23:14;10.07;;;5.40;;
79076;SDS011;68477;42.698;23.342;2023-07-28T01:28:37;5.93;;;4.47;;
79076;SDS011;68477;42.698;23.342;2023-07-28T01:31:05;9.00;;;5.18;;
79076;SDS011;68477;42.698;23.342;2023-07-28T01:33:32;7.90;;;5.55;;
79076;SDS011;68477;42.698;23.342;2023-07-28T01:35:58;6.07;;;4.00;;
79076;SDS011;68477;42.698;23.342;2023-07-28T01:38:25;8.25;;;4.80;;
79076;SDS011;68477;42.698;23.342;2023-07-28T01:40:51;6.60;;;4.07;;
79076;SDS011;68477;42.698;23.342;2023-07-28T01:43:16;6.50;;;4.43;;
79076;SDS011;68477;42.698;23.342;2023-07-28T01:45:42;5.63;;;3.80;;
79076;SDS011;68477;42.698;23.342;2023-07-28T01:48:07;5.30;;;4.40;;
79076;SDS011;68477;42.698;23.342;2023-07-28T01:50:36;5.57;;;4.00;;
79076;SDS011;68477;42.698;23.342;2023-07-28T01:53:03;4.63;;;3.47;;
79076;SDS011;68477;42.698;23.342;2023-07-28T01:55:29;5.35;;;3.80;;
79076;SDS011;68477;42.698;23.342;2023-07-28T01:57:56;5.05;;;3.80;;
79076;SDS011;68477;42.698;23.342;2023-07-28T02:00:23;5.57;;;3.40;;
79076;SDS011;68477;42.698;23.342;2023-07-28T02:02:49;5.50;;;3.53;;
79076;SDS011;68477;42.698;23.342;2023-07-28T02:05:15;5.40;;;3.78;;
79076;SDS011;68477;42.698;23.342;2023-07-28T02:07:41;7.25;;;3.47;;
79076;SDS011;68477;42.698;23.342;2023-07-28T02:10:07;6.18;;;3.90;;
79076;SDS011;68477;42.698;23.342;2023-07-28T02:12:32;7.38;;;4.03;;
79076;SDS011;68477;42.698;23.342;2023-07-28T02:14:58;4.68;;;3.42;;
79076;SDS011;68477;42.698;23.342;2023-07-28T02:17:23;7.03;;;4.28;;
79076;SDS011;68477;42.698;23.342;2023-07-28T02:19:49;6.97;;;4.15;;
79076;SDS011;68477;42.698;23.342;2023-07-28T02:22:14;8.20;;;3.90;;
79076;SDS011;68477;42.698;23.342;2023-07-28T02:24:40;4.68;;;3.50;;
79076;SDS011;68477;42.698;23.342;2023-07-28T02:27:05;4.72;;;3.50;;
79076;SDS011;68477;42.698;23.342;2023-07-28T02:29:31;4.28;;;3.58;;
79076;SDS011;68477;42.698;23.342;2023-07-28T02:31:56;10.25;;;5.30;;
79076;SDS011;68477;42.698;23.342;2023-07-28T02:34:21;4.68;;;3.92;;
79076;SDS011;68477;42.698;23.342;2023-07-28T02:36:47;4.35;;;3.53;;
79076;SDS011;68477;42.698;23.342;2023-07-28T02:39:13;5.75;;;3.70;;
79076;SDS011;68477;42.698;23.342;2023-07-28T02:41:38;4.53;;;3.80;;
79076;SDS011;68477;42.698;23.342;2023-07-28T02:44:04;7.53;;;3.85;;
79076;SDS011;68477;42.698;23.342;2023-07-28T02:46:31;6.45;;;3.72;;
79076;SDS011;68477;42.698;23.342;2023-07-28T02:48:56;6.63;;;4.43;;
79076;SDS011;68477;42.698;23.342;2023-07-28T02:51:21;5.95;;;4.20;;
79076;SDS011;68477;42.698;23.342;2023-07-28T02:53:47;6.32;;;3.90;;
79076;SDS011;68477;42.698;23.342;2023-07-28T02:56:12;5.30;;;4.53;;
79076;SDS011;68477;42.698;23.342;2023-07-28T02:58:38;7.18;;;5.18;;
79076;SDS011;68477;42.698;23.342;2023-07-28T03:01:03;5.70;;;4.63;;
79076;SDS011;68477;42.698;23.342;2023-07-28T03:03:29;6.82;;;4.43;;
79076;SDS011;68477;42.698;23.342;2023-07-28T03:05:55;6.00;;;4.25;;
79076;SDS011;68477;42.698;23.342;2023-07-28T03:08:20;9.00;;;4.70;;
79076;SDS011;68477;42.698;23.342;2023-07-28T03:10:45;9.55;;;4.95;;
79076;SDS011;68477;42.698;23.342;2023-07-28T03:13:11;7.75;;;4.90;;
79076;SDS011;68477;42.698;23.342;2023-07-28T03:15:36;8.75;;;4.80;;
79076;SDS011;68477;42.698;23.342;2023-07-28T03:18:02;9.40;;;4.82;;
79076;SDS011;68477;42.698;23.342;2023-07-28T03:20:27;5.80;;;4.55;;
79076;SDS011;68477;42.698;23.342;2023-07-28T03:22:53;8.00;;;5.07;;
79076;SDS011;68477;42.698;23.342;2023-07-28T03:25:19;5.68;;;4.53;;
79076;SDS011;68477;42.698;23.342;2023-07-28T03:27:45;6.00;;;4.22;;
79076;SDS011;68477;42.698;23.342;2023-07-28T03:30:10;7.65;;;4.75;;
79076;SDS011;68477;42.698;23.342;2023-07-28T03:32:36;7.20;;;5.15;;
79076;SDS011;68477;42.698;23.342;2023-07-28T03:35:02;8.00;;;4.68;;
79076;SDS011;68477;42.698;23.342;2023-07-28T03:37:30;5.50;;;4.78;;
79076;SDS011;68477;42.698;23.342;2023-07-28T03:39:58;9.32;;;5.18;;
79076;SDS011;68477;42.698;23.342;2023-07-28T03:42:24;8.65;;;5.10;;
79076;SDS011;68477;42.698;23.342;2023-07-28T03:44:49;6.20;;;5.30;;
79076;SDS011;68477;42.698;23.342;2023-07-28T03:47:15;9.40;;;5.43;;
79076;SDS011;68477;42.698;23.342;2023-07-28T03:49:40;7.40;;;5.50;;
79076;SDS011;68477;42.698;23.342;2023-07-28T03:52:06;11.35;;;5.38;;
79076;SDS011;68477;42.698;23.342;2023-07-28T03:54:31;7.88;;;5.30;;
79076;SDS011;68477;42.698;23.342;2023-07-28T03:56:57;10.52;;;5.47;;
79076;SDS011;68477;42.698;23.342;2023-07-28T03:59:22;10.55;;;5.38;;
79076;SDS011;68477;42.698;23.342;2023-07-28T04:01:47;7.45;;;4.90;;
79076;SDS011;68477;42.698;23.342;2023-07-28T04:04:13;8.82;;;4.70;;
79076;SDS011;68477;42.698;23.342;2023-07-28T04:06:48;8.40;;;6.10;;
79076;SDS011;68477;42.698;23.342;2023-07-28T04:09:19;12.90;;;5.18;;
79076;SDS011;68477;42.698;23.342;2023-07-28T04:11:45;7.15;;;5.18;;
79076;SDS011;68477;42.698;23.342;2023-07-28T04:14:10;8.05;;;5.40;;
79076;SDS011;68477;42.698;23.342;2023-07-28T04:16:36;8.45;;;5.20;;
79076;SDS011;68477;42.698;23.342;2023-07-28T04:19:02;7.10;;;5.38;;
79076;SDS011;68477;42.698;23.342;2023-07-28T04:21:27;5.85;;;4.20;;
79076;SDS011;68477;42.698;23.342;2023-07-28T04:23:53;7.28;;;4.85;;
79076;SDS011;68477;42.698;23.342;2023-07-28T04:26:18;8.60;;;4.07;;
79076;SDS011;68477;42.698;23.342;2023-07-28T04:28:44;7.18;;;4.60;;
79076;SDS011;68477;42.698;23.342;2023-07-28T04:31:10;9.55;;;4.43;;
79076;SDS011;68477;42.698;23.342;2023-07-28T04:33:36;9.20;;;4.30;;
79076;SDS011;68477;42.698;23.342;2023-07-28T04:36:04;6.53;;;4.65;;
79076;SDS011;68477;42.698;23.342;2023-07-28T04:38:30;9.20;;;4.88;;
79076;SDS011;68477;42.698;23.342;2023-07-28T04:40:55;9.23;;;4.45;;
79076;SDS011;68477;42.698;23.342;2023-07-28T04:43:21;7.43;;;4.35;;
79076;SDS011;68477;42.698;23.342;2023-07-28T04:45:46;6.70;;;4.00;;
79076;SDS011;68477;42.698;23.342;2023-07-28T04:48:12;6.18;;;4.70;;
79076;SDS011;68477;42.698;23.342;2023-07-28T04:50:37;10.23;;;4.68;;
79076;SDS011;68477;42.698;23.342;2023-07-28T04:53:03;6.95;;;4.50;;
79076;SDS011;68477;42.698;23.342;2023-07-28T04:55:28;9.38;;;6.15;;
79076;SDS011;68477;42.698;23.342;2023-07-28T04:57:54;9.20;;;7.05;;
79076;SDS011;68477;42.698;23.342;2023-07-28T05:00:20;13.45;;;6.35;;
79076;SDS011;68477;42.698;23.342;2023-07-28T05:02:45;13.52;;;6.55;;
79076;SDS011;68477;42.698;23.342;2023-07-28T05:05:11;8.10;;;6.40;;
79076;SDS011;68477;42.698;23.342;2023-07-28T05:07:37;9.35;;;6.32;;
79076;SDS011;68477;42.698;23.342;2023-07-28T05:10:03;9.55;;;6.30;;
79076;SDS011;68477;42.698;23.342;2023-07-28T05:12:30;8.82;;;7.03;;
79076;SDS011;68477;42.698;23.342;2023-07-28T05:14:55;8.15;;;5.95;;
79076;SDS011;68477;42.698;23.342;2023-07-28T05:17:21;7.80;;;4.82;;
79076;SDS011;68477;42.698;23.342;2023-07-28T05:19:46;6.38;;;5.43;;
79076;SDS011;68477;42.698;23.342;2023-07-28T05:22:12;7.97;;;6.18;;
79076;SDS011;68477;42.698;23.342;2023-07-28T05:24:37;9.55;;;6.47;;
79076;SDS011;68477;42.698;23.342;2023-07-28T05:27:03;5.28;;;4.45;;
79076;SDS011;68477;42.698;23.342;2023-07-28T05:29:29;8.70;;;4.97;;
79076;SDS011;68477;42.698;23.342;2023-07-28T05:31:54;10.40;;;4.55;;
79076;SDS011;68477;42.698;23.342;2023-07-28T05:34:20;5.57;;;4.20;;
79076;SDS011;68477;42.698;23.342;2023-07-28T05:36:45;8.43;;;4.55;;
79076;SDS011;68477;42.698;23.342;2023-07-28T05:39:10;9.27;;;4.00;;
79076;SDS011;68477;42.698;23.342;2023-07-28T05:41:36;7.90;;;4.40;;
79076;SDS011;68477;42.698;23.342;2023-07-28T05:44:02;8.02;;;4.53;;
79076;SDS011;68477;42.698;23.342;2023-07-28T05:46:28;9.90;;;4.95;;
79076;SDS011;68477;42.698;23.342;2023-07-28T05:48:54;6.70;;;4.50;;
79076;SDS011;68477;42.698;23.342;2023-07-28T05:51:20;15.95;;;7.53;;
79076;SDS011;68477;42.698;23.342;2023-07-28T05:53:46;9.27;;;4.47;;
79076;SDS011;68477;42.698;23.342;2023-07-28T05:56:12;7.75;;;4.07;;
79076;SDS011;68477;42.698;23.342;2023-07-28T05:58:37;6.82;;;4.35;;
79076;SDS011;68477;42.698;23.342;2023-07-28T06:01:03;8.32;;;4.45;;
79076;SDS011;68477;42.698;23.342;2023-07-28T06:03:28;6.07;;;4.90;;
79076;SDS011;68477;42.698;23.342;2023-07-28T06:05:54;6.60;;;4.63;;
79076;SDS011;68477;42.698;23.342;2023-07-28T06:08:19;6.15;;;4.70;;
79076;SDS011;68477;42.698;23.342;2023-07-28T06:10:45;7.97;;;4.30;;
79076;SDS011;68477;42.698;23.342;2023-07-28T06:13:10;11.75;;;4.53;;
79076;SDS011;68477;42.698;23.342;2023-07-28T06:15:38;12.63;;;4.63;;
79076;SDS011;68477;42.698;23.342;2023-07-28T06:18:04;10.52;;;5.45;;
79076;SDS011;68477;42.698;23.342;2023-07-28T06:20:30;7.30;;;4.55;;
79076;SDS011;68477;42.698;23.342;2023-07-28T06:22:55;4.80;;;3.65;;
79076;SDS011;68477;42.698;23.342;2023-07-28T06:25:20;5.55;;;4.38;;
79076;SDS011;68477;42.698;23.342;2023-07-28T06:27:46;7.85;;;4.10;;
79076;SDS011;68477;42.698;23.342;2023-07-28T06:30:12;6.30;;;4.35;;
79076;SDS011;68477;42.698;23.342;2023-07-28T06:32:37;6.80;;;4.60;;
79076;SDS011;68477;42.698;23.342;2023-07-28T06:35:03;5.63;;;4.05;;
79076;SDS011;68477;42.698;23.342;2023-07-28T06:37:29;7.18;;;4.85;;
79076;SDS011;68477;42.698;23.342;2023-07-28T06:39:54;7.20;;;4.60;;
79076;SDS011;68477;42.698;23.342;2023-07-28T06:42:21;5.25;;;4.38;;
79076;SDS011;68477;42.698;23.342;2023-07-28T06:44:49;6.85;;;4.50;;
79076;SDS011;68477;42.698;23.342;2023-07-28T06:47:16;10.32;;;4.95;;
79076;SDS011;68477;42.698;23.342;2023-07-28T06:49:41;7.97;;;3.92;;
79076;SDS011;68477;42.698;23.342;2023-07-28T06:52:07;7.15;;;4.70;;
79076;SDS011;68477;42.698;23.342;2023-07-28T06:54:32;9.15;;;4.72;;
79076;SDS011;68477;42.698;23.342;2023-07-28T06:56:57;5.57;;;4.40;;
79076;SDS011;68477;42.698;23.342;2023-07-28T06:59:24;7.32;;;3.90;;
79076;SDS011;68477;42.698;23.342;2023-07-28T07:01:49;7.78;;;4.55;;
79076;SDS011;68477;42.698;23.342;2023-07-28T07:04:15;6.63;;;4.03;;
79076;SDS011;68477;42.698;23.342;2023-07-28T07:06:41;10.27;;;4.32;;
79076;SDS011;68477;42.698;23.342;2023-07-28T07:09:06;5.43;;;4.07;;
79076;SDS011;68477;42.698;23.342;2023-07-28T07:11:31;8.60;;;4.30;;
79076;SDS011;68477;42.698;23.342;2023-07-28T07:13:57;4.95;;;4.00;;
79076;SDS011;68477;42.698;23.342;2023-07-28T07:16:22;6.70;;;5.13;;
79076;SDS011;68477;42.698;23.342;2023-07-28T07:18:48;6.93;;;4.00;;
79076;SDS011;68477;42.698;23.342;2023-07-28T07:21:15;6.28;;;3.90;;
79076;SDS011;68477;42.698;23.342;2023-07-28T07:23:41;10.02;;;5.00;;
79076;SDS011;68477;42.698;23.342;2023-07-28T07:26:07;14.20;;;7.75;;
79076;SDS011;68477;42.698;23.342;2023-07-28T07:28:32;5.53;;;3.55;;
79076;SDS011;68477;42.698;23.342;2023-07-28T07:31:00;7.25;;;4.28;;
79076;SDS011;68477;42.698;23.342;2023-07-28T07:33:25;4.82;;;3.97;;
79076;SDS011;68477;42.698;23.342;2023-07-28T07:35:50;5.70;;;4.38;;
79076;SDS011;68477;42.698;23.342;2023-07-28T07:38:16;6.47;;;3.80;;
79076;SDS011;68477;42.698;23.342;2023-07-28T07:40:41;5.22;;;4.03;;
79076;SDS011;68477;42.698;23.342;2023-07-28T07:43:07;9.05;;;4.88;;
79076;SDS011;68477;42.698;23.342;2023-07-28T07:45:32;9.15;;;3.95;;
79076;SDS011;68477;42.698;23.342;2023-07-28T07:47:58;5.55;;;3.72;;
79076;SDS011;68477;42.698;23.342;2023-07-28T07:50:24;9.02;;;3.92;;
79076;SDS011;68477;42.698;23.342;2023-07-28T07:52:50;7.50;;;4.05;;
79076;SDS011;68477;42.698;23.342;2023-07-28T07:55:15;9.55;;;4.03;;
79076;SDS011;68477;42.698;23.342;2023-07-28T07:57:41;8.77;;;4.20;;
79076;SDS011;68477;42.698;23.342;2023-07-28T08:00:07;11.18;;;4.35;;
79076;SDS011;68477;42.698;23.342;2023-07-28T08:02:33;10.02;;;3.92;;
79076;SDS011;68477;42.698;23.342;2023-07-28T08:04:59;6.65;;;4.20;;
79076;SDS011;68477;42.698;23.342;2023-07-28T08:07:24;7.68;;;3.72;;
79076;SDS011;68477;42.698;23.342;2023-07-28T08:09:50;5.47;;;4.05;;
79076;SDS011;68477;42.698;23.342;2023-07-28T08:12:16;6.47;;;3.58;;
79076;SDS011;68477;42.698;23.342;2023-07-28T08:14:41;5.07;;;3.60;;
79076;SDS011;68477;42.698;23.342;2023-07-28T08:17:08;15.00;;;3.78;;
79076;SDS011;68477;42.698;23.342;2023-07-28T08:19:34;4.88;;;3.60;;
79076;SDS011;68477;42.698;23.342;2023-07-28T08:22:00;5.53;;;3.35;;
79076;SDS011;68477;42.698;23.342;2023-07-28T08:24:28;5.53;;;3.25;;
79076;SDS011;68477;42.698;23.342;2023-07-28T08:26:54;7.72;;;3.65;;
79076;SDS011;68477;42.698;23.342;2023-07-28T08:29:19;6.10;;;3.38;;
79076;SDS011;68477;42.698;23.342;2023-07-28T08:31:45;4.82;;;3.13;;
79076;SDS011;68477;42.698;23.342;2023-07-28T08:34:10;6.20;;;3.70;;
79076;SDS011;68477;42.698;23.342;2023-07-28T08:36:35;6.55;;;4.00;;
79076;SDS011;68477;42.698;23.342;2023-07-28T08:39:01;5.47;;;3.03;;
79076;SDS011;68477;42.698;23.342;2023-07-28T08:41:27;6.65;;;3.63;;
79076;SDS011;68477;42.698;23.342;2023-07-28T08:43:52;8.55;;;3.30;;
79076;SDS011;68477;42.698;23.342;2023-07-28T08:46:19;6.65;;;3.92;;
79076;SDS011;68477;42.698;23.342;2023-07-28T08:48:45;5.35;;;3.67;;
79076;SDS011;68477;42.698;23.342;2023-07-28T08:51:10;9.07;;;3.97;;
79076;SDS011;68477;42.698;23.342;2023-07-28T08:53:37;5.43;;;3.50;;
79076;SDS011;68477;42.698;23.342;2023-07-28T08:56:03;6.05;;;3.45;;
79076;SDS011;68477;42.698;23.342;2023-07-28T08:58:29;5.07;;;3.33;;
79076;SDS011;68477;42.698;23.342;2023-07-28T09:00:55;5.75;;;3.67;;
79076;SDS011;68477;42.698;23.342;2023-07-28T09:03:21;8.48;;;5.18;;
79076;SDS011;68477;42.698;23.342;2023-07-28T09:05:47;6.38;;;3.50;;
79076;SDS011;68477;42.698;23.342;2023-07-28T09:08:13;7.45;;;3.38;;
79076;SDS011;68477;42.698;23.342;2023-07-28T09:10:40;7.97;;;3.22;;
79076;SDS011;68477;42.698;23.342;2023-07-28T09:13:10;7.13;;;3.10;;
79076;SDS011;68477;42.698;23.342;2023-07-28T09:15:37;5.40;;;3.17;;
79076;SDS011;68477;42.698;23.342;2023-07-28T09:18:03;7.43;;;3.28;;
79076;SDS011;68477;42.698;23.342;2023-07-28T09:20:33;8.32;;;3.17;;
79076;SDS011;68477;42.698;23.342;2023-07-28T09:23:01;5.15;;;3.22;;
79076;SDS011;68477;42.698;23.342;2023-07-28T09:25:27;8.55;;;3.88;;
79076;SDS011;68477;42.698;23.342;2023-07-28T09:27:54;5.93;;;3.05;;
79076;SDS011;68477;42.698;23.342;2023-07-28T09:30:20;6.60;;;3.47;;
79076;SDS011;68477;42.698;23.342;2023-07-28T09:32:49;10.88;;;4.57;;
79076;SDS011;68477;42.698;23.342;2023-07-28T09:35:16;5.85;;;3.58;;
79076;SDS011;68477;42.698;23.342;2023-07-28T09:37:46;4.70;;;3.38;;
79076;SDS011;68477;42.698;23.342;2023-07-28T09:40:14;8.73;;;5.22;;
79076;SDS011;68477;42.698;23.342;2023-07-28T09:42:42;5.57;;;3.22;;
79076;SDS011;68477;42.698;23.342;2023-07-28T09:45:14;9.43;;;4.35;;
79076;SDS011;68477;42.698;23.342;2023-07-28T09:47:41;8.85;;;3.70;;
79076;SDS011;68477;42.698;23.342;2023-07-28T09:50:09;11.02;;;3.80;;
79076;SDS011;68477;42.698;23.342;2023-07-28T09:52:42;8.98;;;3.42;;
79076;SDS011;68477;42.698;23.342;2023-07-28T09:55:09;6.30;;;3.20;;
79076;SDS011;68477;42.698;23.342;2023-07-28T09:57:43;4.65;;;2.97;;
79076;SDS011;68477;42.698;23.342;2023-07-28T10:00:11;10.55;;;3.50;;
79076;SDS011;68477;42.698;23.342;2023-07-28T10:02:39;4.30;;;3.03;;
79076;SDS011;68477;42.698;23.342;2023-07-28T10:05:05;4.90;;;3.20;;
79076;SDS011;68477;42.698;23.342;2023-07-28T10:07:35;4.68;;;3.05;;
79076;SDS011;68477;42.698;23.342;2023-07-28T10:10:03;7.25;;;3.10;;
79076;SDS011;68477;42.698;23.342;2023-07-28T10:12:48;5.68;;;3.25;;
79076;SDS011;68477;42.698;23.342;2023-07-28T10:15:17;6.88;;;3.30;;
79076;SDS011;68477;42.698;23.342;2023-07-28T10:17:45;4.60;;;3.15;;
79076;SDS011;68477;42.698;23.342;2023-07-28T10:20:26;6.53;;;4.05;;
79076;SDS011;68477;42.698;23.342;2023-07-28T10:23:33;7.65;;;4.45;;
79076;SDS011;68477;42.698;23.342;2023-07-28T10:25:56;4.38;;;3.08;;
79076;SDS011;68477;42.698;23.342;2023-07-28T10:28:31;7.90;;;2.95;;
79076;SDS011;68477;42.698;23.342;2023-07-28T10:31:00;9.45;;;3.47;;
79076;SDS011;68477;42.698;23.342;2023-07-28T10:33:36;8.30;;;3.58;;
79076;SDS011;68477;42.698;23.342;2023-07-28T10:39:00;6.00;;;3.40;;
79076;SDS011;68477;42.698;23.342;2023-07-28T10:44:25;7.22;;;3.30;;
79076;SDS011;68477;42.698;23.342;2023-07-28T10:46:50;6.10;;;3.10;;
79076;SDS011;68477;42.698;23.342;2023-07-28T10:49:16;10.45;;;4.32;;
79076;SDS011;68477;42.698;23.342;2023-07-28T10:51:42;7.28;;;3.05;;
79076;SDS011;68477;42.698;23.342;2023-07-28T10:54:07;9.70;;;3.50;;
79076;SDS011;68477;42.698;23.342;2023-07-28T10:56:33;6.40;;;3.20;;
79076;SDS011;68477;42.698;23.342;2023-07-28T10:59:02;7.63;;;3.50;;
79076;SDS011;68477;42.698;23.342;2023-07-28T11:01:32;7.18;;;3.20;;
79076;SDS011;68477;42.698;23.342;2023-07-28T11:04:08;8.13;;;3.40;;
79076;SDS011;68477;42.698;23.342;2023-07-28T11:06:40;7.63;;;2.90;;
79076;SDS011;68477;42.698;23.342;2023-07-28T11:09:08;12.75;;;4.88;;
79076;SDS011;68477;42.698;23.342;2023-07-28T11:11:35;5.80;;;3.25;;
79076;SDS011;68477;42.698;23.342;2023-07-28T11:14:01;6.13;;;3.15;;
79076;SDS011;68477;42.698;23.342;2023-07-28T11:16:28;5.55;;;3.08;;
79076;SDS011;68477;42.698;23.342;2023-07-28T11:19:01;9.48;;;3.33;;
79076;SDS011;68477;42.698;23.342;2023-07-28T11:21:27;7.07;;;3.67;;
79076;SDS011;68477;42.698;23.342;2023-07-28T11:23:53;4.13;;;3.30;;
79076;SDS011;68477;42.698;23.342;2023-07-28T11:26:19;3.90;;;2.72;;
79076;SDS011;68477;42.698;23.342;2023-07-28T11:28:46;4.55;;;2.80;;
79076;SDS011;68477;42.698;23.342;2023-07-28T11:31:11;7.85;;;2.88;;
79076;SDS011;68477;42.698;23.342;2023-07-28T11:33:37;5.57;;;2.85;;
79076;SDS011;68477;42.698;23.342;2023-07-28T11:36:02;10.88;;;3.15;;
79076;SDS011;68477;42.698;23.342;2023-07-28T11:38:28;6.50;;;2.92;;
79076;SDS011;68477;42.698;23.342;2023-07-28T11:40:58;5.20;;;3.50;;
79076;SDS011;68477;42.698;23.342;2023-07-28T11:43:23;4.18;;;2.85;;
79076;SDS011;68477;42.698;23.342;2023-07-28T11:45:49;5.18;;;3.55;;
79076;SDS011;68477;42.698;23.342;2023-07-28T11:48:15;3.63;;;2.95;;
79076;SDS011;68477;42.698;23.342;2023-07-28T11:50:41;3.45;;;2.45;;
79076;SDS011;68477;42.698;23.342;2023-07-28T11:53:08;4.28;;;2.67;;
79076;SDS011;68477;42.698;23.342;2023-07-28T11:55:35;5.72;;;3.10;;
79076;SDS011;68477;42.698;23.342;2023-07-28T11:58:01;11.23;;;3.30;;
79076;SDS011;68477;42.698;23.342;2023-07-28T12:00:33;7.60;;;2.95;;
79076;SDS011;68477;42.698;23.342;2023-07-28T12:03:09;6.97;;;3.20;;
79076;SDS011;68477;42.698;23.342;2023-07-28T12:05:38;8.73;;;3.13;;
79076;SDS011;68477;42.698;23.342;2023-07-28T12:08:04;3.53;;;2.60;;
79076;SDS011;68477;42.698;23.342;2023-07-28T12:10:29;3.67;;;2.60;;
79076;SDS011;68477;42.698;23.342;2023-07-28T12:12:56;3.65;;;2.80;;
79076;SDS011;68477;42.698;23.342;2023-07-28T12:20:37;4.47;;;2.50;;
79076;SDS011;68477;42.698;23.342;2023-07-28T12:23:04;4.38;;;2.70;;
79076;SDS011;68477;42.698;23.342;2023-07-28T12:25:31;4.65;;;2.95;;
79076;SDS011;68477;42.698;23.342;2023-07-28T12:27:57;5.50;;;3.28;;
79076;SDS011;68477;42.698;23.342;2023-07-28T12:30:23;6.28;;;4.32;;
79076;SDS011;68477;42.698;23.342;2023-07-28T12:32:48;5.35;;;3.20;;
79076;SDS011;68477;42.698;23.342;2023-07-28T12:35:14;3.63;;;2.75;;
79076;SDS011;68477;42.698;23.342;2023-07-28T12:37:40;4.03;;;2.95;;
79076;SDS011;68477;42.698;23.342;2023-07-28T12:40:06;5.40;;;3.38;;
79076;SDS011;68477;42.698;23.342;2023-07-28T12:42:33;4.70;;;3.40;;
79076;SDS011;68477;42.698;23.342;2023-07-28T12:44:58;4.53;;;2.80;;
79076;SDS011;68477;42.698;23.342;2023-07-28T12:47:24;6.15;;;3.10;;
79076;SDS011;68477;42.698;23.342;2023-07-28T12:49:50;8.65;;;4.43;;
79076;SDS011;68477;42.698;23.342;2023-07-28T12:52:15;3.30;;;2.58;;
79076;SDS011;68477;42.698;23.342;2023-07-28T12:54:40;4.13;;;2.90;;
79076;SDS011;68477;42.698;23.342;2023-07-28T12:57:07;4.20;;;3.30;;
79076;SDS011;68477;42.698;23.342;2023-07-28T12:59:35;3.40;;;2.72;;
79076;SDS011;68477;42.698;23.342;2023-07-28T13:02:00;3.72;;;2.70;;
79076;SDS011;68477;42.698;23.342;2023-07-28T13:04:26;5.45;;;2.67;;
79076;SDS011;68477;42.698;23.342;2023-07-28T13:06:51;5.80;;;3.08;;
79076;SDS011;68477;42.698;23.342;2023-07-28T13:09:17;4.45;;;2.90;;
79076;SDS011;68477;42.698;23.342;2023-07-28T13:11:43;3.97;;;2.70;;
79076;SDS011;68477;42.698;23.342;2023-07-28T13:14:08;5.30;;;2.40;;
79076;SDS011;68477;42.698;23.342;2023-07-28T13:16:33;3.40;;;2.42;;
79076;SDS011;68477;42.698;23.342;2023-07-28T13:18:59;2.75;;;2.10;;
79076;SDS011;68477;42.698;23.342;2023-07-28T13:21:24;3.58;;;2.60;;
79076;SDS011;68477;42.698;23.342;2023-07-28T13:23:50;5.85;;;2.63;;
79076;SDS011;68477;42.698;23.342;2023-07-28T13:26:16;6.53;;;2.97;;
79076;SDS011;68477;42.698;23.342;2023-07-28T13:28:41;4.15;;;3.10;;
79076;SDS011;68477;42.698;23.342;2023-07-28T13:31:11;5.13;;;3.00;;
79076;SDS011;68477;42.698;23.342;2023-07-28T13:33:46;3.85;;;2.78;;
79076;SDS011;68477;42.698;23.342;2023-07-28T13:36:11;3.70;;;2.75;;
79076;SDS011;68477;42.698;23.342;2023-07-28T13:38:37;3.58;;;2.80;;
79076;SDS011;68477;42.698;23.342;2023-07-28T13:41:04;5.82;;;2.67;;
79076;SDS011;68477;42.698;23.342;2023-07-28T13:43:31;3.70;;;2.78;;
79076;SDS011;68477;42.698;23.342;2023-07-28T13:45:57;3.40;;;2.70;;
79076;SDS011;68477;42.698;23.342;2023-07-28T13:48:23;3.08;;;2.40;;
79076;SDS011;68477;42.698;23.342;2023-07-28T13:50:50;3.75;;;2.65;;
79076;SDS011;68477;42.698;23.342;2023-07-28T13:53:15;3.40;;;2.60;;
79076;SDS011;68477;42.698;23.342;2023-07-28T13:55:40;4.88;;;2.67;;
79076;SDS011;68477;42.698;23.342;2023-07-28T13:58:07;3.55;;;2.75;;
79076;SDS011;68477;42.698;23.342;2023-07-28T14:00:33;3.45;;;2.78;;
79076;SDS011;68477;42.698;23.342;2023-07-28T14:02:58;3.83;;;2.50;;
79076;SDS011;68477;42.698;23.342;2023-07-28T14:05:24;4.75;;;2.85;;
79076;SDS011;68477;42.698;23.342;2023-07-28T14:07:49;4.03;;;2.65;;
79076;SDS011;68477;42.698;23.342;2023-07-28T14:10:15;4.70;;;2.72;;
79076;SDS011;68477;42.698;23.342;2023-07-28T14:12:40;4.32;;;2.80;;
79076;SDS011;68477;42.698;23.342;2023-07-28T14:15:06;6.95;;;2.83;;
79076;SDS011;68477;42.698;23.342;2023-07-28T14:17:32;3.53;;;2.53;;
79076;SDS011;68477;42.698;23.342;2023-07-28T14:19:58;4.28;;;2.85;;
79076;SDS011;68477;42.698;23.342;2023-07-28T14:22:23;4.35;;;2.83;;
79076;SDS011;68477;42.698;23.342;2023-07-28T14:24:49;2.95;;;2.38;;
79076;SDS011;68477;42.698;23.342;2023-07-28T14:27:15;3.92;;;2.80;;
79076;SDS011;68477;42.698;23.342;2023-07-28T14:29:41;4.35;;;2.90;;
79076;SDS011;68477;42.698;23.342;2023-07-28T14:32:06;3.55;;;2.78;;
79076;SDS011;68477;42.698;23.342;2023-07-28T14:34:33;4.45;;;3.13;;
79076;SDS011;68477;42.698;23.342;2023-07-28T14:37:00;3.40;;;2.78;;
79076;SDS011;68477;42.698;23.342;2023-07-28T14:39:29;3.75;;;2.50;;
79076;SDS011;68477;42.698;23.342;2023-07-28T14:41:55;6.55;;;2.72;;
79076;SDS011;68477;42.698;23.342;2023-07-28T14:44:22;4.65;;;2.75;;
79076;SDS011;68477;42.698;23.342;2023-07-28T14:46:48;4.13;;;3.20;;